createdAt,value
2022-08-22T00:02:09.690Z,2.50
2022-08-22T00:02:42.057Z,1.75
2022-08-22T00:03:06.550Z,2.90
2022-08-22T00:04:52.010Z,2.50
2022-08-22T00:07:24.345Z,2.60
2022-08-22T00:10:11.652Z,2.37
2022-08-22T00:12:53.309Z,2.50
2022-08-22T00:15:42.650Z,2.70
2022-08-22T00:18:15.564Z,2.73
2022-08-22T00:21:14.671Z,2.60
2022-08-22T00:23:59.960Z,2.27
2022-08-22T00:26:52.577Z,2.67
2022-08-22T00:29:38.613Z,2.40
2022-08-22T00:32:08.834Z,2.63
2022-08-22T00:34:40.618Z,2.90
2022-08-22T00:37:16.933Z,2.60
2022-08-22T00:39:52.974Z,2.40
2022-08-22T00:42:50.300Z,2.33
2022-08-22T00:45:47.672Z,2.40
2022-08-22T00:48:32.996Z,2.23
2022-08-22T00:51:18.752Z,2.53
2022-08-22T00:54:01.109Z,2.60
2022-08-22T00:56:48.898Z,2.50
2022-08-22T00:59:36.783Z,2.63
2022-08-22T01:02:14.749Z,2.70
2022-08-22T01:05:00.464Z,2.50
2022-08-22T01:07:46.514Z,2.50
2022-08-22T01:10:42.641Z,2.70
2022-08-22T01:13:15.488Z,2.30
2022-08-22T01:15:44.652Z,2.30
2022-08-22T01:18:31.669Z,2.30
2022-08-22T01:21:33.628Z,2.60
2022-08-22T01:24:22.275Z,2.50
2022-08-22T01:27:22.604Z,2.50
2022-08-22T01:30:16.538Z,2.33
2022-08-22T01:33:31.160Z,2.63
2022-08-22T01:36:09.900Z,2.50
2022-08-22T01:39:01.901Z,2.60
2022-08-22T01:41:46.747Z,2.47
2022-08-22T01:44:16.630Z,3.03
2022-08-22T01:47:01.136Z,2.60
2022-08-22T01:49:34.173Z,2.50
2022-08-22T01:52:13.015Z,2.60
2022-08-22T01:55:00.649Z,2.40
2022-08-22T01:57:27.848Z,2.63
2022-08-22T01:59:59.565Z,2.40
2022-08-22T02:02:41.602Z,2.67
2022-08-22T02:05:11.372Z,2.40
2022-08-22T02:08:05.606Z,2.50
2022-08-22T02:10:48.413Z,2.30
2022-08-22T02:13:30.538Z,2.70
2022-08-22T02:16:08.502Z,2.70
2022-08-22T02:18:52.657Z,2.60
2022-08-22T02:21:32.930Z,2.70
2022-08-22T02:24:24.627Z,2.20
2022-08-22T02:27:04.418Z,2.30
2022-08-22T02:29:43.800Z,2.80
2022-08-22T02:32:17.445Z,2.37
2022-08-22T02:35:03.671Z,2.70
2022-08-22T02:37:49.572Z,2.90
2022-08-22T02:40:41.001Z,2.60
2022-08-22T02:43:15.173Z,2.70
2022-08-22T02:46:22.225Z,2.70
2022-08-22T02:49:09.315Z,3.07
2022-08-22T02:52:03.066Z,2.70
2022-08-22T02:54:32.856Z,2.63
2022-08-22T02:57:06.720Z,2.60
2022-08-22T03:00:31.107Z,2.67
2022-08-22T03:02:59.127Z,2.87
2022-08-22T03:05:28.155Z,2.67
2022-08-22T03:08:21.123Z,2.67
2022-08-22T03:10:57.742Z,2.83
2022-08-22T03:13:52.758Z,2.70
2022-08-22T03:16:47.931Z,2.83
2022-08-22T03:19:44.029Z,2.57
2022-08-22T03:22:49.665Z,3.10
2022-08-22T03:25:30.673Z,3.00
2022-08-22T03:28:30.049Z,2.93
2022-08-22T03:31:01.027Z,2.57
2022-08-22T03:33:31.192Z,2.90
2022-08-22T03:36:09.876Z,2.90
2022-08-22T03:38:36.781Z,3.00
2022-08-22T03:41:19.118Z,3.00
2022-08-22T03:44:01.221Z,3.10
2022-08-22T03:47:04.807Z,2.73
2022-08-22T03:49:50.358Z,2.67
2022-08-22T03:52:56.054Z,3.10
2022-08-22T03:55:55.071Z,3.10
2022-08-22T03:58:57.754Z,2.97
2022-08-22T04:01:39.775Z,3.17
2022-08-22T04:04:47.454Z,3.13
2022-08-22T04:07:45.502Z,2.73
2022-08-22T04:10:51.674Z,2.80
2022-08-22T04:13:24.826Z,2.67
2022-08-22T04:16:11.972Z,2.80
2022-08-22T04:19:13.045Z,3.07
2022-08-22T04:21:49.245Z,3.07
2022-08-22T04:24:37.470Z,3.00
2022-08-22T04:27:32.671Z,2.97
2022-08-22T04:30:03.064Z,2.90
2022-08-22T04:32:47.490Z,3.07
2022-08-22T04:35:34.671Z,3.73
2022-08-22T04:38:16.764Z,3.17
2022-08-22T04:40:55.218Z,2.83
2022-08-22T04:43:33.233Z,3.40
2022-08-22T04:46:13.936Z,3.00
2022-08-22T04:48:53.061Z,3.20
2022-08-22T04:51:32.067Z,3.20
2022-08-22T04:54:40.679Z,3.30
2022-08-22T04:57:37.915Z,3.30
2022-08-22T05:00:08.008Z,3.43
2022-08-22T05:02:38.669Z,3.23
2022-08-22T05:05:13.561Z,3.50
2022-08-22T05:07:56.214Z,3.00
2022-08-22T05:10:27.960Z,2.97
2022-08-22T05:13:00.624Z,3.10
2022-08-22T05:15:35.284Z,3.50
2022-08-22T05:18:09.442Z,3.27
2022-08-22T05:20:40.171Z,3.03
2022-08-22T05:23:18.027Z,3.10
2022-08-22T05:25:48.007Z,3.43
2022-08-22T05:28:24.588Z,3.23
2022-08-22T05:30:51.878Z,3.20
2022-08-22T05:33:19.376Z,3.20
2022-08-22T05:36:09.231Z,3.03
2022-08-22T05:39:12.784Z,3.30
2022-08-22T05:41:41.507Z,3.13
2022-08-22T05:44:19.376Z,3.13
2022-08-22T05:47:06.237Z,3.40
2022-08-22T05:49:45.040Z,3.00
2022-08-22T05:52:37.152Z,3.67
2022-08-22T05:55:27.100Z,3.67
2022-08-22T05:58:03.341Z,3.40
2022-08-22T06:00:37.145Z,3.37
2022-08-22T06:03:28.326Z,3.40
2022-08-22T06:05:59.212Z,3.37
2022-08-22T06:08:34.507Z,3.73
2022-08-22T06:11:33.758Z,3.20
2022-08-22T06:14:37.386Z,2.90
2022-08-22T06:17:13.698Z,2.97
2022-08-22T06:19:44.980Z,3.17
2022-08-22T06:22:18.734Z,3.37
2022-08-22T06:24:47.601Z,2.70
2022-08-22T06:27:18.917Z,2.70
2022-08-22T06:29:53.538Z,2.50
2022-08-22T06:32:58.580Z,2.40
2022-08-22T06:35:22.816Z,2.55
2022-08-22T06:37:52.204Z,2.13
2022-08-22T06:40:19.573Z,2.10
2022-08-22T06:42:51.783Z,2.15
2022-08-22T06:45:32.370Z,2.47
2022-08-22T06:48:06.032Z,2.10
2022-08-22T06:50:41.285Z,2.25
2022-08-22T06:53:31.577Z,2.20
2022-08-22T06:56:04.383Z,1.85
2022-08-22T06:58:54.445Z,2.28
2022-08-22T07:01:25.750Z,2.35
2022-08-22T07:03:54.490Z,2.20
2022-08-22T07:06:34.398Z,2.10
2022-08-22T07:09:05.717Z,1.90
2022-08-22T07:11:39.591Z,2.30
2022-08-22T07:14:14.140Z,1.90
2022-08-22T07:16:53.809Z,2.08
2022-08-22T07:19:35.071Z,2.08
2022-08-22T07:22:30.435Z,2.20
2022-08-22T07:25:02.951Z,2.33
2022-08-22T07:27:41.745Z,2.15
2022-08-22T07:30:13.175Z,1.80
2022-08-22T07:33:25.267Z,2.47
2022-08-22T07:35:59.032Z,2.15
2022-08-22T07:38:43.013Z,2.10
2022-08-22T07:41:24.914Z,2.00
2022-08-22T07:44:00.844Z,2.10
2022-08-22T07:46:41.322Z,2.20
2022-08-22T07:49:10.972Z,2.20
2022-08-22T07:51:45.072Z,2.28
2022-08-22T07:54:21.794Z,2.15
2022-08-22T07:57:02.953Z,2.42
2022-08-22T07:59:33.203Z,2.15
2022-08-22T08:02:04.925Z,2.35
2022-08-22T08:04:39.990Z,2.45
2022-08-22T08:07:11.546Z,2.22
2022-08-22T08:09:47.040Z,2.13
2022-08-22T08:12:15.996Z,2.20
2022-08-22T08:14:45.423Z,2.15
2022-08-22T08:17:39.511Z,2.00
2022-08-22T08:20:11.599Z,2.10
2022-08-22T08:22:43.002Z,2.50
2022-08-22T08:25:15.578Z,2.00
2022-08-22T08:28:01.658Z,2.17
2022-08-22T08:30:35.354Z,2.15
2022-08-22T08:33:25.272Z,2.15
2022-08-22T08:36:06.635Z,1.80
2022-08-22T08:38:49.279Z,2.15
2022-08-22T08:41:33.991Z,2.10
2022-08-22T08:44:19.378Z,2.00
2022-08-22T08:46:55.903Z,2.22
2022-08-22T08:49:33.654Z,2.10
2022-08-22T08:52:28.503Z,2.10
2022-08-22T08:54:58.262Z,2.13
2022-08-22T08:58:22.685Z,2.20
2022-08-22T09:00:56.154Z,1.80
2022-08-22T09:03:55.512Z,2.30
2022-08-22T09:07:01.355Z,2.17
2022-08-22T09:09:29.259Z,2.03
2022-08-22T09:12:14.981Z,2.00
2022-08-22T09:15:00.726Z,2.25
2022-08-22T09:17:57.764Z,2.05
2022-08-22T09:21:11.285Z,2.10
2022-08-22T09:24:15.262Z,1.70
2022-08-22T09:26:50.284Z,2.05
2022-08-22T09:29:55.204Z,2.00
2022-08-22T09:32:35.695Z,2.22
2022-08-22T09:35:16.345Z,2.10
2022-08-22T09:38:13.453Z,2.10
2022-08-22T09:41:06.408Z,2.08
2022-08-22T09:43:45.695Z,2.10
2022-08-22T09:46:32.167Z,2.15
2022-08-22T09:49:08.376Z,2.15
2022-08-22T09:51:47.402Z,2.20
2022-08-22T09:54:31.404Z,2.08
2022-08-22T09:57:20.075Z,2.00
2022-08-22T10:00:02.094Z,2.20
2022-08-22T10:02:44.777Z,2.00
2022-08-22T10:05:40.836Z,2.10
2022-08-22T10:08:20.049Z,2.17
2022-08-22T10:11:19.008Z,2.10
2022-08-22T10:13:57.700Z,2.20
2022-08-22T10:16:56.277Z,2.20
2022-08-22T10:19:38.140Z,2.15
2022-08-22T10:22:23.598Z,2.13
2022-08-22T10:25:18.746Z,2.10
2022-08-22T10:28:19.975Z,2.05
2022-08-22T10:31:08.814Z,2.25
2022-08-22T10:33:47.218Z,2.28
2022-08-22T10:36:17.876Z,2.33
2022-08-22T10:38:47.251Z,2.33
2022-08-22T10:41:30.699Z,2.53
2022-08-22T10:44:06.766Z,2.20
2022-08-22T10:46:54.385Z,2.05
2022-08-22T10:49:43.242Z,2.13
2022-08-22T10:52:20.471Z,2.10
2022-08-22T10:54:57.969Z,1.95
2022-08-22T10:57:38.038Z,2.30
2022-08-22T11:00:31.165Z,2.25
2022-08-22T11:03:10.591Z,1.98
2022-08-22T11:05:46.927Z,2.33
2022-08-22T11:08:20.091Z,2.08
2022-08-22T11:10:52.164Z,2.40
2022-08-22T11:13:21.893Z,2.20
2022-08-22T11:16:07.037Z,1.92
2022-08-22T11:19:15.160Z,1.90
2022-08-22T11:21:51.011Z,2.30
2022-08-22T11:24:55.694Z,2.40
2022-08-22T11:27:42.166Z,2.10
2022-08-22T11:30:09.201Z,2.20
2022-08-22T11:32:49.731Z,2.00
2022-08-22T11:35:19.449Z,2.00
2022-08-22T11:38:00.146Z,1.88
2022-08-22T11:40:45.375Z,2.28
2022-08-22T11:43:44.676Z,2.00
2022-08-22T11:46:22.550Z,2.30
2022-08-22T11:49:11.175Z,2.00
2022-08-22T11:51:57.305Z,1.90
2022-08-22T11:54:49.642Z,2.20
2022-08-22T11:57:41.737Z,1.88
2022-08-22T12:00:26.685Z,2.00
2022-08-22T12:03:23.415Z,2.00
2022-08-22T12:06:16.774Z,2.22
2022-08-22T12:08:50.939Z,1.98
2022-08-22T12:11:43.483Z,1.88
2022-08-22T12:14:31.400Z,2.20
2022-08-22T12:17:51.103Z,2.15
2022-08-22T12:20:16.901Z,2.08
2022-08-22T12:22:49.848Z,2.40
2022-08-22T12:25:50.624Z,2.20
2022-08-22T12:28:52.915Z,1.95
2022-08-22T12:31:19.835Z,2.00
2022-08-22T12:34:33.994Z,2.10
2022-08-22T12:37:09.401Z,2.13
2022-08-22T12:40:09.500Z,1.60
2022-08-22T12:42:48.977Z,2.17
2022-08-22T12:45:46.209Z,1.95
2022-08-22T12:48:45.134Z,2.03
2022-08-22T12:51:43.808Z,2.35
2022-08-22T12:54:44.200Z,2.10
2022-08-22T12:57:45.641Z,2.30
2022-08-22T13:00:26.902Z,2.00
2022-08-22T13:02:57.769Z,2.22
2022-08-22T13:05:27.725Z,2.00
2022-08-22T13:08:04.429Z,2.15
2022-08-22T13:10:40.729Z,2.03
2022-08-22T13:13:12.462Z,1.90
2022-08-22T13:15:55.488Z,1.90
2022-08-22T13:18:30.641Z,1.98
2022-08-22T13:21:02.682Z,2.00
2022-08-22T13:23:39.960Z,2.30
2022-08-22T13:26:33.081Z,2.20
2022-08-22T13:29:27.472Z,2.03
2022-08-22T13:32:09.496Z,2.03
2022-08-22T13:35:02.549Z,2.60
2022-08-22T13:37:44.297Z,2.10
2022-08-22T13:40:23.110Z,2.10
2022-08-22T13:43:01.579Z,2.28
2022-08-22T13:45:30.347Z,2.10
2022-08-22T13:48:03.511Z,2.00
2022-08-22T13:50:37.529Z,2.17
2022-08-22T13:53:29.542Z,2.10
2022-08-22T13:56:15.624Z,2.00
2022-08-22T13:59:06.246Z,2.13
2022-08-22T14:01:50.657Z,2.25
2022-08-22T14:04:32.245Z,2.30
2022-08-22T14:07:06.072Z,2.30
2022-08-22T14:09:54.348Z,2.30
2022-08-22T14:13:05.974Z,2.00
2022-08-22T14:15:44.692Z,2.47
2022-08-22T14:18:30.514Z,2.20
2022-08-22T14:21:26.407Z,2.08
2022-08-22T14:23:59.031Z,2.05
2022-08-22T14:26:33.098Z,2.20
2022-08-22T14:29:13.366Z,2.30
2022-08-22T14:31:41.960Z,2.20
2022-08-22T14:34:13.903Z,2.05
2022-08-22T14:36:58.653Z,2.28
2022-08-22T14:39:34.929Z,2.10
2022-08-22T14:42:29.306Z,2.15
2022-08-22T14:45:17.677Z,2.20
2022-08-22T14:48:29.562Z,1.83
2022-08-22T14:50:53.050Z,2.38
2022-08-22T14:53:24.906Z,2.08
2022-08-22T14:56:24.737Z,2.35
2022-08-22T14:59:29.901Z,2.20
2022-08-22T15:02:09.624Z,1.83
2022-08-22T15:04:43.303Z,2.15
2022-08-22T15:07:12.642Z,2.40
2022-08-22T15:09:50.965Z,1.98
2022-08-22T15:12:21.002Z,2.00
2022-08-22T15:14:52.639Z,2.00
2022-08-22T15:17:52.735Z,2.20
2022-08-22T15:20:28.184Z,2.22
2022-08-22T15:23:00.604Z,2.05
2022-08-22T15:25:33.460Z,2.08
2022-08-22T15:28:14.146Z,1.90
2022-08-22T15:31:05.362Z,2.10
2022-08-22T15:33:35.499Z,2.08
2022-08-22T15:36:11.601Z,1.92
2022-08-22T15:38:55.328Z,1.90
2022-08-22T15:41:25.019Z,1.90
2022-08-22T15:44:14.847Z,1.75
2022-08-22T15:47:37.661Z,2.05
2022-08-22T15:50:14.685Z,2.00
2022-08-22T15:53:19.974Z,2.08
2022-08-22T15:56:05.072Z,1.92
2022-08-22T15:58:37.299Z,1.80
2022-08-22T16:01:18.902Z,2.03
2022-08-22T16:04:00.354Z,2.10
2022-08-22T16:06:51.117Z,1.90
2022-08-22T16:09:50.751Z,2.15
2022-08-22T16:12:33.273Z,2.25
2022-08-22T16:15:03.899Z,2.10
2022-08-22T16:17:30.945Z,2.35
2022-08-22T16:20:19.332Z,2.22
2022-08-22T16:22:59.190Z,2.35
2022-08-22T16:25:45.253Z,2.00
2022-08-22T16:28:58.115Z,2.60
2022-08-22T16:31:43.357Z,1.88
2022-08-22T16:34:16.761Z,1.90
2022-08-22T16:37:11.378Z,2.67
2022-08-22T16:39:46.924Z,2.10
2022-08-22T16:42:14.326Z,2.20
2022-08-22T16:44:50.253Z,2.10
2022-08-22T16:47:22.046Z,2.03
2022-08-22T16:49:52.082Z,2.30
2022-08-22T16:52:24.829Z,2.20
2022-08-22T16:54:53.906Z,2.08
2022-08-22T16:57:29.878Z,2.30
2022-08-22T17:00:35.967Z,2.00
2022-08-22T17:03:21.946Z,2.10
2022-08-22T17:06:03.948Z,2.28
2022-08-22T17:08:53.829Z,2.00
2022-08-22T17:11:40.550Z,2.33
2022-08-22T17:14:25.871Z,2.08
2022-08-22T17:17:19.853Z,2.20
2022-08-22T17:20:04.669Z,2.05
2022-08-22T17:23:00.053Z,2.17
2022-08-22T17:25:47.530Z,2.42
2022-08-22T17:28:17.734Z,2.20
2022-08-22T17:31:06.528Z,2.20
2022-08-22T17:34:15.876Z,2.17
2022-08-22T17:36:43.067Z,2.58
2022-08-22T17:39:24.282Z,1.88
2022-08-22T17:42:21.161Z,2.05
2022-08-22T17:45:03.516Z,2.35
2022-08-22T17:47:39.973Z,2.28
2022-08-22T17:50:18.595Z,1.73
2022-08-22T17:52:51.867Z,2.25
2022-08-22T17:55:26.924Z,2.20
2022-08-22T17:58:06.356Z,2.33
2022-08-22T18:00:37.257Z,2.10
2022-08-22T18:03:31.648Z,2.55
2022-08-22T18:06:11.595Z,2.15
2022-08-22T18:11:56.032Z,2.20
2022-08-22T18:14:51.121Z,2.17
2022-08-22T18:17:21.912Z,1.85
2022-08-22T18:20:02.226Z,2.40
2022-08-22T18:22:41.578Z,2.38
2022-08-22T18:25:11.576Z,2.40
2022-08-22T18:27:54.139Z,2.15
2022-08-22T18:30:38.318Z,2.03
2022-08-22T18:33:19.326Z,2.40
2022-08-22T18:36:20.280Z,2.20
2022-08-22T18:39:07.969Z,2.30
2022-08-22T18:41:50.929Z,2.20
2022-08-22T18:44:29.950Z,2.28
2022-08-22T18:47:16.845Z,2.53
2022-08-22T18:49:48.535Z,2.30
2022-08-22T18:52:20.407Z,2.42
2022-08-22T18:55:25.646Z,2.20
2022-08-22T18:58:33.288Z,2.45
2022-08-22T19:01:21.882Z,2.25
2022-08-22T19:04:16.950Z,2.63
2022-08-22T19:06:57.006Z,2.28
2022-08-22T19:09:51.360Z,2.78
2022-08-22T19:12:49.992Z,2.33
2022-08-22T19:15:41.536Z,2.55
2022-08-22T19:18:49.950Z,2.35
2022-08-22T19:21:51.025Z,2.38
2022-08-22T19:24:20.903Z,2.42
2022-08-22T19:27:08.981Z,2.38
2022-08-22T19:29:36.123Z,2.60
2022-08-22T19:32:12.764Z,2.47
2022-08-22T19:34:47.041Z,2.58
2022-08-22T19:37:31.077Z,2.63
2022-08-22T19:40:11.171Z,2.50
2022-08-22T19:42:44.177Z,2.70
2022-08-22T19:45:22.127Z,2.80
2022-08-22T19:47:57.097Z,2.88
2022-08-22T19:50:31.093Z,2.60
2022-08-22T19:53:07.262Z,2.83
2022-08-22T19:55:37.305Z,2.60
2022-08-22T19:58:32.937Z,2.60
2022-08-22T20:01:09.006Z,2.78
2022-08-22T20:03:51.368Z,2.70
2022-08-22T20:06:52.397Z,2.60
2022-08-22T20:09:38.517Z,2.83
2022-08-22T20:12:27.892Z,2.90
2022-08-22T20:14:55.356Z,2.83
2022-08-22T20:17:25.405Z,2.85
2022-08-22T20:22:52.906Z,2.63
2022-08-22T20:25:42.291Z,2.60
2022-08-22T20:28:34.393Z,2.72
2022-08-22T20:31:06.072Z,2.78
2022-08-22T20:33:36.905Z,2.42
2022-08-22T20:36:18.591Z,2.60
2022-08-22T20:39:16.838Z,2.50
2022-08-22T20:41:49.224Z,2.60
2022-08-22T20:44:24.183Z,2.70
2022-08-22T20:47:02.106Z,2.67
2022-08-22T20:49:42.168Z,2.92
2022-08-22T20:52:19.901Z,2.72
2022-08-22T20:54:58.887Z,2.60
2022-08-22T20:57:26.068Z,2.50
2022-08-22T21:00:12.700Z,2.50
2022-08-22T21:03:03.098Z,2.72
2022-08-22T21:05:34.735Z,2.90
2022-08-22T21:08:12.683Z,2.70
2022-08-22T21:10:59.576Z,3.05
2022-08-22T21:13:34.484Z,2.55
2022-08-22T21:16:12.865Z,2.50
2022-08-22T21:18:45.969Z,2.90
2022-08-22T21:21:34.425Z,3.10
2022-08-22T21:24:07.045Z,3.08
2022-08-22T21:26:39.161Z,2.50
2022-08-22T21:29:15.103Z,2.80
2022-08-22T21:32:06.880Z,2.60
2022-08-22T21:34:44.171Z,2.85
2022-08-22T21:37:26.024Z,2.72
2022-08-22T21:40:00.015Z,2.88
2022-08-22T21:42:36.189Z,2.90
2022-08-22T21:45:13.164Z,2.75
2022-08-22T21:47:41.955Z,2.90
2022-08-22T21:50:21.096Z,2.60
2022-08-22T21:52:54.097Z,2.78
2022-08-22T21:55:26.385Z,2.80
2022-08-22T21:58:02.594Z,3.10
2022-08-22T22:00:48.876Z,2.53
2022-08-22T22:03:19.512Z,3.08
2022-08-22T22:05:47.065Z,3.10
2022-08-22T22:08:13.997Z,2.90
2022-08-22T22:10:42.958Z,3.08
2022-08-22T22:13:10.750Z,2.90
2022-08-22T22:15:44.214Z,3.00
2022-08-22T22:18:17.644Z,3.07
2022-08-22T22:20:45.853Z,2.90
2022-08-22T22:23:13.257Z,3.00
2022-08-22T22:25:42.418Z,2.90
2022-08-22T22:28:22.791Z,3.00
2022-08-22T22:30:53.353Z,3.13
2022-08-22T22:33:23.649Z,3.00
2022-08-22T22:35:52.658Z,3.40
2022-08-22T22:38:23.877Z,3.23
2022-08-22T22:40:51.651Z,3.10
2022-08-22T22:43:19.420Z,3.20
2022-08-22T22:45:46.348Z,2.90
2022-08-22T22:48:17.528Z,3.10
2022-08-22T22:50:51.894Z,3.10
2022-08-22T22:53:20.044Z,2.77
2022-08-22T22:55:59.765Z,2.90
2022-08-22T22:58:28.645Z,2.80
2022-08-22T23:00:56.415Z,3.13
2022-08-22T23:03:24.753Z,3.20
2022-08-22T23:05:51.574Z,2.90
2022-08-22T23:08:18.478Z,3.00
2022-08-22T23:10:45.393Z,2.80
2022-08-22T23:13:12.255Z,3.00
2022-08-22T23:15:39.169Z,3.23
2022-08-22T23:18:06.065Z,3.30
2022-08-22T23:20:33.145Z,2.90
2022-08-22T23:23:00.246Z,2.90
2022-08-22T23:25:27.120Z,3.13
2022-08-22T23:27:54.502Z,3.20
2022-08-22T23:30:21.721Z,3.20
2022-08-22T23:32:48.755Z,3.20
2022-08-22T23:35:15.748Z,3.10
2022-08-22T23:37:42.663Z,2.67
2022-08-22T23:40:10.487Z,3.10
2022-08-22T23:42:37.436Z,2.60
2022-08-22T23:45:04.782Z,2.90
2022-08-22T23:47:31.638Z,3.00
2022-08-22T23:49:58.527Z,2.90
2022-08-22T23:52:31.157Z,2.90
2022-08-22T23:54:58.206Z,3.00
2022-08-22T23:57:27.318Z,2.83
2022-08-22T23:59:57.229Z,2.93
